Estación Meteorológica Peña el Pijo (Robertgarden) [ 12/14/19 08:40:45 CET ]

Fecha Hora Presion(HPa) Temp (°C) Humedad % Rocio (°C) Viento ( m/s) Direccion Lluvia 1Hora(mm) Lluvia 24H(mm) LLuvia Total(mm)
2019-Aug-18 01:01:46 1010.800 16.9 58 8.6         363.34
2019-Aug-18 02:01:42 1010.300 16.5 60 8.8         363.34
2019-Aug-18 03:02:03 1010.000 17.0 58 8.7         363.34
2019-Aug-18 04:01:40 1009.600 16.4 59 8.4         363.34
2019-Aug-18 05:01:41 1009.300 16.8 57 8.2         363.34
2019-Aug-18 06:01:45 1009.600 16.5 56 7.7         363.34
2019-Aug-18 07:01:37 1009.300 18.5 56 9.5         363.34
2019-Aug-18 08:01:36 1009.500 26.6 47 14.3         363.34
2019-Aug-18 10:01:32 1009.900 29.3 42 15.1         363.34
2019-Aug-18 11:01:42 1010.000 31.8 31 12.6         363.34
2019-Aug-18 12:02:03 1010.000 33.8 25 10.8         363.34
2019-Aug-18 13:01:43 1009.500 34.1 24 10.4         363.34
2019-Aug-18 14:01:37 1009.500 37.1 21 11.1         363.34
2019-Aug-18 15:01:43 1009.100 37.6 20 10.9         363.34
2019-Aug-18 16:01:48 1008.700 34.1 23 9.8         363.34
2019-Aug-18 17:01:47 1008.800 31.1 28 10.3         363.34
2019-Aug-18 18:01:45 1008.800 26.2 49 14.6         363.34
2019-Aug-18 19:01:46 1008.700 31.5 32 12.7         363.34
2019-Aug-18 20:01:48 1008.700 30.4 30 10.9         363.34
2019-Aug-18 21:01:49 1009.100 26.0 40 11.4         363.34
2019-Aug-18 22:01:51 1009.700 21.3 51 10.8         363.34
2019-Aug-18 23:01:43 1010.000 20.7 48 9.3         363.34

Temperatura Máxima:37°    Temperatura Mínima:16°
Presión Máxima:1010.800 Hpa    Presión Mínima:1008.700 Hpa


Volver